Time;durP1;ratioP1;P1;durP2;ratioP2;P2;SDS_P1;SDS_P2;PMS_P1;PMS_P2;Temp;Humidity;BMP_temperature;BMP_pressure;BME280_temperature;BME280_humidity;BME280_pressure;Samples;Min_cycle;Max_cycle;Signal;HPM_P1;HPM_P2
2022/03/01 00:01:54;;;;;;;50.28;19.85;;;2.50;99.90;;;;;;5052144;28;20053;-54
2022/03/01 00:04:21;;;;;;;44.13;19.35;;;2.50;99.90;;;;;;5052386;28;20474;-53
2022/03/01 00:06:47;;;;;;;44.55;19.42;;;2.50;99.90;;;;;;5045490;28;20029;-53
2022/03/01 00:09:12;;;;;;;47.88;19.00;;;2.50;99.90;;;;;;5032282;28;20072;-54
2022/03/01 00:11:38;;;;;;;43.13;19.02;;;2.50;99.90;;;;;;5053385;28;20029;-57
2022/03/01 00:14:05;;;;;;;40.05;18.55;;;2.50;99.90;;;;;;5052915;28;20025;-53
2022/03/01 00:16:31;;;;;;;44.80;19.20;;;2.50;99.90;;;;;;5049867;28;20032;-56
2022/03/01 00:18:58;;;;;;;41.63;17.75;;;2.50;99.90;;;;;;5043707;28;20388;-55
2022/03/01 00:21:24;;;;;;;42.88;18.42;;;2.50;99.90;;;;;;5067220;28;20383;-56
2022/03/01 00:23:50;;;;;;;44.00;18.80;;;2.40;99.90;;;;;;5052090;28;20414;-59
2022/03/01 00:26:16;;;;;;;38.03;17.50;;;2.40;99.90;;;;;;5052596;28;20029;-56
2022/03/01 00:28:42;;;;;;;46.20;18.98;;;2.50;99.90;;;;;;5052387;28;20047;-56
2022/03/01 00:31:08;;;;;;;42.90;18.15;;;2.50;99.90;;;;;;5045916;28;20060;-54
2022/03/01 00:33:34;;;;;;;40.67;18.40;;;2.40;99.90;;;;;;5037910;28;20063;-59
2022/03/01 00:35:59;;;;;;;39.10;17.70;;;2.50;99.90;;;;;;5030903;28;20951;-59
2022/03/01 00:38:25;;;;;;;43.78;18.35;;;2.50;99.90;;;;;;5031153;28;20031;-59
2022/03/01 00:40:51;;;;;;;38.95;17.05;;;2.40;99.90;;;;;;5030196;28;20025;-56
2022/03/01 00:43:17;;;;;;;48.88;17.85;;;2.40;99.90;;;;;;5038552;28;20047;-56
2022/03/01 00:45:42;;;;;;;46.58;19.40;;;2.40;99.90;;;;;;5040195;28;20029;-56
2022/03/01 00:48:08;;;;;;;43.10;18.15;;;2.40;99.90;;;;;;5029521;28;21817;-58
2022/03/01 00:50:34;;;;;;;48.55;18.58;;;2.40;99.90;;;;;;5032343;28;20474;-58
2022/03/01 00:52:59;;;;;;;41.28;17.27;;;2.30;99.90;;;;;;5029711;28;20029;-56
2022/03/01 00:55:25;;;;;;;42.88;19.00;;;2.40;99.90;;;;;;5031513;28;20084;-56
2022/03/01 00:57:51;;;;;;;41.63;16.67;;;2.40;99.90;;;;;;5030756;28;20041;-54
2022/03/01 01:00:17;;;;;;;39.17;17.60;;;2.30;99.90;;;;;;5043296;28;20124;-56
2022/03/01 01:02:44;;;;;;;38.22;17.52;;;2.30;99.90;;;;;;5032149;28;20036;-56
2022/03/01 01:05:09;;;;;;;47.08;17.73;;;2.30;99.90;;;;;;5030252;28;20033;-56
2022/03/01 01:07:36;;;;;;;36.97;16.65;;;2.30;99.90;;;;;;5031347;28;20040;-56
2022/03/01 01:10:03;;;;;;;46.85;18.63;;;2.30;99.90;;;;;;5036602;28;20091;-55
2022/03/01 01:12:28;;;;;;;40.90;16.52;;;2.30;99.90;;;;;;5029527;28;20033;-57
2022/03/01 01:14:54;;;;;;;42.78;18.48;;;2.30;99.90;;;;;;5041444;28;20086;-55
2022/03/01 01:17:20;;;;;;;42.65;16.83;;;2.30;99.90;;;;;;5035202;28;20045;-57
2022/03/01 01:19:45;;;;;;;39.88;17.05;;;2.30;99.90;;;;;;5032131;28;20057;-54
2022/03/01 01:24:55;;;;;;;39.50;16.65;;;2.30;99.90;;;;;;5032794;28;20043;-56
2022/03/01 01:27:20;;;;;;;42.40;17.50;;;2.30;99.90;;;;;;5031635;28;20036;-56
2022/03/01 01:29:46;;;;;;;37.42;16.23;;;2.20;99.90;;;;;;5034305;28;20452;-56
2022/03/01 01:32:12;;;;;;;39.50;16.95;;;2.20;99.90;;;;;;5042551;28;20037;-56
2022/03/01 01:34:37;;;;;;;39.88;17.65;;;2.20;99.90;;;;;;5036479;28;20037;-56
2022/03/01 01:37:03;;;;;;;40.05;17.17;;;2.30;99.90;;;;;;5031504;28;20418;-56
2022/03/01 01:39:29;;;;;;;41.05;16.45;;;2.20;99.90;;;;;;5030539;28;20279;-56
2022/03/01 01:41:54;;;;;;;37.97;16.42;;;2.20;99.90;;;;;;5030526;28;20467;-58
2022/03/01 01:44:20;;;;;;;37.15;15.80;;;2.20;99.90;;;;;;5040911;28;20025;-55
2022/03/01 01:46:45;;;;;;;35.78;15.25;;;2.20;99.90;;;;;;5028923;28;20036;-56
2022/03/01 01:49:11;;;;;;;34.88;15.75;;;2.20;99.90;;;;;;5029494;28;20033;-55
2022/03/01 01:51:37;;;;;;;43.83;16.98;;;2.10;99.90;;;;;;5028742;28;20037;-55
2022/03/01 01:54:04;;;;;;;40.88;15.88;;;2.10;99.90;;;;;;5047435;28;20117;-56
2022/03/01 01:56:30;;;;;;;40.55;16.35;;;2.10;99.90;;;;;;5036428;28;20044;-56
2022/03/01 01:58:55;;;;;;;38.28;16.00;;;2.10;99.90;;;;;;5029638;28;20037;-58
2022/03/01 02:01:21;;;;;;;36.63;15.25;;;2.10;99.90;;;;;;5029775;28;20036;-57
2022/03/01 02:03:47;;;;;;;40.63;16.63;;;2.10;99.90;;;;;;5029594;28;20044;-56
2022/03/01 02:06:12;;;;;;;40.25;16.83;;;2.00;99.90;;;;;;5030932;28;20213;-57
2022/03/01 02:08:38;;;;;;;37.63;15.95;;;2.00;99.90;;;;;;5028995;28;20120;-57
2022/03/01 02:11:04;;;;;;;36.83;15.73;;;2.00;99.90;;;;;;5035690;28;20059;-57
2022/03/01 02:13:29;;;;;;;37.58;16.05;;;2.00;99.90;;;;;;5055789;28;20556;-56
2022/03/01 02:15:56;;;;;;;40.22;16.45;;;2.00;99.90;;;;;;5036584;28;20037;-54
2022/03/01 02:18:22;;;;;;;40.58;15.82;;;2.00;99.90;;;;;;5042426;28;20116;-57
2022/03/01 02:20:48;;;;;;;42.28;15.80;;;2.00;99.90;;;;;;5033339;28;20199;-56
2022/03/01 02:23:14;;;;;;;34.40;15.45;;;2.10;99.90;;;;;;5028753;28;20026;-55
2022/03/01 02:25:40;;;;;;;40.10;15.10;;;1.90;99.90;;;;;;5029007;28;20501;-55
2022/03/01 02:28:05;;;;;;;32.15;14.77;;;1.90;99.90;;;;;;5047308;28;20033;-56
2022/03/01 02:30:32;;;;;;;39.40;16.33;;;2.00;99.90;;;;;;5047904;28;20115;-56
2022/03/01 02:32:58;;;;;;;34.95;15.93;;;1.90;99.90;;;;;;5048792;28;20044;-55
2022/03/01 02:35:23;;;;;;;36.38;15.32;;;1.90;99.90;;;;;;5047966;28;20427;-55
2022/03/01 02:37:49;;;;;;;37.05;14.85;;;1.90;99.90;;;;;;5048271;28;20052;-55
2022/03/01 02:40:15;;;;;;;37.00;14.80;;;1.90;99.90;;;;;;5050227;28;20332;-57
2022/03/01 02:42:44;;;;;;;39.40;15.35;;;1.90;99.90;;;;;;5049765;28;20021;-56
2022/03/01 02:45:12;;;;;;;36.70;14.73;;;1.90;99.90;;;;;;5048414;28;20036;-57
2022/03/01 02:47:38;;;;;;;37.33;15.27;;;1.90;99.90;;;;;;5047563;28;20032;-58
2022/03/01 02:50:05;;;;;;;32.80;14.13;;;1.90;99.90;;;;;;5049652;28;20021;-54
2022/03/01 02:52:32;;;;;;;34.90;14.52;;;1.90;99.90;;;;;;5047641;28;20517;-55
2022/03/01 02:54:58;;;;;;;32.63;14.20;;;2.00;99.90;;;;;;5046986;28;20487;-56
2022/03/01 02:57:24;;;;;;;39.35;15.77;;;1.90;99.90;;;;;;5048626;28;20105;-55
2022/03/01 02:59:51;;;;;;;42.40;14.95;;;1.90;99.90;;;;;;5047654;28;20021;-56
2022/03/01 03:02:17;;;;;;;37.15;14.68;;;1.90;99.90;;;;;;5048225;28;20036;-54
2022/03/01 03:04:42;;;;;;;38.72;14.57;;;1.90;99.90;;;;;;5049039;28;20021;-55
2022/03/01 03:07:08;;;;;;;36.03;14.60;;;1.80;99.90;;;;;;5049044;28;20033;-56
2022/03/01 03:09:34;;;;;;;39.60;16.27;;;1.80;99.90;;;;;;5047889;28;20520;-54
2022/03/01 03:12:00;;;;;;;39.58;15.98;;;1.80;99.90;;;;;;5047937;28;20067;-57
2022/03/01 03:14:26;;;;;;;34.53;14.50;;;1.80;99.90;;;;;;5048477;28;20145;-56
2022/03/01 03:16:52;;;;;;;37.67;15.70;;;1.70;99.90;;;;;;5045781;28;20441;-55
2022/03/01 03:19:17;;;;;;;33.88;14.45;;;1.70;99.90;;;;;;5047877;28;20052;-56
2022/03/01 03:21:44;;;;;;;36.90;14.50;;;1.60;99.90;;;;;;5048007;28;20033;-55
2022/03/01 03:24:10;;;;;;;42.97;15.70;;;1.60;99.90;;;;;;5048537;28;20056;-56
2022/03/01 03:26:36;;;;;;;38.53;15.18;;;1.60;99.90;;;;;;5047334;28;20032;-55
2022/03/01 03:29:02;;;;;;;37.95;15.63;;;1.60;99.90;;;;;;5040445;28;20190;-55
2022/03/01 03:31:28;;;;;;;39.80;16.42;;;1.50;99.90;;;;;;5048141;28;20048;-55
2022/03/01 03:33:54;;;;;;;34.90;15.43;;;1.50;99.90;;;;;;5046830;28;20037;-56
2022/03/01 03:36:19;;;;;;;35.83;14.95;;;1.50;99.90;;;;;;5047024;28;20041;-55
2022/03/01 03:38:45;;;;;;;37.63;15.73;;;1.40;99.90;;;;;;5046926;28;20367;-55
2022/03/01 03:41:10;;;;;;;37.75;14.88;;;1.40;99.90;;;;;;5067181;22;20083;-59
2022/03/01 03:43:36;;;;;;;43.67;15.90;;;1.30;99.90;;;;;;5007561;28;20089;-60
2022/03/01 03:46:02;;;;;;;41.60;16.42;;;1.30;99.90;;;;;;5016273;28;20044;-59
2022/03/01 03:48:27;;;;;;;37.47;16.58;;;1.30;99.90;;;;;;5016041;28;20069;-60
2022/03/01 03:50:53;;;;;;;44.92;16.75;;;1.30;99.90;;;;;;5016253;28;20128;-60
2022/03/01 03:53:19;;;;;;;40.83;16.05;;;1.20;99.90;;;;;;5015569;28;20037;-59
2022/03/01 03:55:44;;;;;;;36.65;16.00;;;1.30;99.90;;;;;;5017241;28;20030;-58
2022/03/01 03:58:11;;;;;;;40.08;15.95;;;1.20;99.90;;;;;;5020128;28;20117;-58
2022/03/01 04:00:37;;;;;;;37.33;16.15;;;1.20;99.90;;;;;;5011303;28;20037;-60
2022/03/01 04:03:03;;;;;;;41.22;14.80;;;1.20;99.90;;;;;;5016786;28;20030;-60
2022/03/01 04:05:29;;;;;;;39.13;16.35;;;1.20;99.90;;;;;;5016584;28;20024;-61
2022/03/01 04:07:55;;;;;;;40.45;16.98;;;1.10;99.90;;;;;;5012781;28;20117;-61
2022/03/01 04:10:20;;;;;;;46.92;17.05;;;1.10;99.90;;;;;;5019746;28;20492;-60
2022/03/01 04:12:46;;;;;;;40.15;15.38;;;1.10;99.90;;;;;;5017920;28;20402;-59
2022/03/01 04:15:12;;;;;;;35.78;14.60;;;1.00;99.90;;;;;;5015307;28;20046;-61
2022/03/01 04:17:39;;;;;;;35.33;15.95;;;1.00;99.90;;;;;;5015764;28;20064;-61
2022/03/01 04:20:05;;;;;;;36.72;14.43;;;1.00;99.90;;;;;;5012964;28;20022;-61
2022/03/01 04:22:31;;;;;;;39.78;15.05;;;1.00;99.90;;;;;;5018531;28;20018;-61
2022/03/01 04:24:57;;;;;;;40.35;16.63;;;1.00;99.90;;;;;;5022374;28;20501;-61
2022/03/01 04:27:23;;;;;;;38.22;15.20;;;1.00;99.90;;;;;;5022994;28;20548;-60
2022/03/01 04:29:49;;;;;;;36.33;14.05;;;0.90;99.90;;;;;;5019382;28;20112;-62
2022/03/01 04:32:15;;;;;;;38.78;15.48;;;0.90;99.90;;;;;;5016825;28;20329;-61
2022/03/01 04:34:41;;;;;;;37.35;15.57;;;0.80;99.90;;;;;;5015224;28;20546;-61
2022/03/01 04:37:07;;;;;;;37.80;15.27;;;0.80;99.90;;;;;;5018233;28;20026;-61
2022/03/01 04:39:33;;;;;;;36.60;14.98;;;0.80;99.90;;;;;;5018547;28;20050;-60
2022/03/01 04:41:59;;;;;;;43.33;15.38;;;0.80;99.90;;;;;;5019439;28;20143;-61
2022/03/01 04:44:24;;;;;;;39.40;16.77;;;0.80;99.90;;;;;;5019761;28;20026;-60
2022/03/01 04:46:50;;;;;;;38.67;15.15;;;0.80;99.90;;;;;;5019950;28;20042;-60
2022/03/01 04:49:16;;;;;;;38.50;16.10;;;0.80;99.90;;;;;;5022920;28;20033;-61
2022/03/01 04:51:41;;;;;;;42.15;15.10;;;0.70;99.90;;;;;;5015220;28;20034;-61
2022/03/01 04:54:08;;;;;;;47.13;18.10;;;0.70;99.90;;;;;;5017991;28;20554;-60
2022/03/01 04:56:33;;;;;;;38.08;15.93;;;0.70;99.90;;;;;;5017580;28;20026;-61
2022/03/01 04:58:59;;;;;;;41.28;15.73;;;0.70;99.90;;;;;;5021774;28;20355;-61
2022/03/01 05:01:25;;;;;;;41.72;17.08;;;0.60;99.90;;;;;;5018836;28;20040;-60
2022/03/01 05:03:50;;;;;;;35.03;14.10;;;0.60;99.90;;;;;;5020299;28;20078;-60
2022/03/01 05:06:16;;;;;;;43.05;16.35;;;0.50;99.90;;;;;;5020331;28;20025;-61
2022/03/01 05:08:42;;;;;;;37.03;16.40;;;0.50;99.90;;;;;;5013642;28;20525;-61
2022/03/01 05:11:07;;;;;;;40.40;15.98;;;0.50;99.90;;;;;;5022354;28;20495;-57
2022/03/01 05:13:33;;;;;;;39.25;16.52;;;0.50;99.90;;;;;;5015690;28;20542;-60
2022/03/01 05:15:59;;;;;;;37.40;15.98;;;0.50;99.90;;;;;;5016050;28;20439;-59
2022/03/01 05:18:24;;;;;;;40.47;16.17;;;0.40;99.90;;;;;;5024051;28;20045;-58
2022/03/01 05:20:51;;;;;;;45.10;17.00;;;0.40;99.90;;;;;;5010562;28;20327;-59
2022/03/01 05:23:17;;;;;;;40.78;16.00;;;0.40;99.90;;;;;;5007224;28;20069;-58
2022/03/01 05:25:43;;;;;;;39.47;16.13;;;0.50;99.90;;;;;;5014241;28;20054;-59
2022/03/01 05:28:09;;;;;;;38.70;15.60;;;0.50;99.90;;;;;;5014201;28;20121;-61
2022/03/01 05:30:35;;;;;;;48.75;16.88;;;0.40;99.90;;;;;;5002530;28;20030;-59
2022/03/01 05:33:01;;;;;;;36.33;15.02;;;0.40;99.90;;;;;;5009213;28;20030;-59
2022/03/01 05:35:29;;;;;;;47.45;17.27;;;0.30;99.90;;;;;;5015670;28;20021;-61
2022/03/01 05:37:57;;;;;;;36.15;14.77;;;0.40;99.90;;;;;;5018174;28;20033;-60
2022/03/01 05:40:28;;;;;;;41.97;16.00;;;0.40;99.90;;;;;;5017972;28;20045;-60
2022/03/01 05:42:54;;;;;;;41.25;16.38;;;0.30;99.90;;;;;;5019904;28;20239;-60
2022/03/01 05:45:20;;;;;;;38.95;14.38;;;0.30;99.90;;;;;;5018557;28;20033;-59
2022/03/01 05:47:46;;;;;;;41.47;16.20;;;0.20;99.90;;;;;;5023983;28;20037;-59
2022/03/01 05:50:13;;;;;;;43.20;16.10;;;0.30;99.90;;;;;;5012213;28;20044;-59
2022/03/01 05:52:40;;;;;;;40.45;16.80;;;0.20;99.90;;;;;;5017593;28;20089;-58
2022/03/01 05:55:07;;;;;;;42.35;15.82;;;0.20;99.90;;;;;;5014821;28;20483;-61
2022/03/01 05:57:33;;;;;;;38.92;16.27;;;0.20;99.90;;;;;;5009666;28;20511;-60
2022/03/01 05:59:59;;;;;;;40.95;16.38;;;0.20;99.90;;;;;;5020430;28;20064;-61
2022/03/01 06:02:25;;;;;;;41.38;16.88;;;0.20;99.90;;;;;;5019147;28;20331;-55
2022/03/01 06:04:52;;;;;;;43.60;16.23;;;0.20;99.90;;;;;;5017225;28;20034;-60
2022/03/01 06:07:18;;;;;;;36.30;15.52;;;0.10;99.90;;;;;;5023801;28;20026;-56
2022/03/01 06:09:44;;;;;;;45.88;16.88;;;0.10;99.90;;;;;;5019504;28;20040;-57
2022/03/01 06:12:09;;;;;;;44.63;15.93;;;0.10;99.90;;;;;;5013259;28;20041;-58
2022/03/01 06:14:35;;;;;;;41.95;16.60;;;0.10;99.90;;;;;;5018857;28;20043;-57
2022/03/01 06:17:01;;;;;;;41.85;16.60;;;0.10;99.90;;;;;;5009569;28;20044;-57
2022/03/01 06:19:27;;;;;;;42.10;16.33;;;0.00;99.90;;;;;;5020710;28;20036;-60
2022/03/01 06:21:53;;;;;;;43.20;16.92;;;0.10;99.90;;;;;;5013383;28;20034;-60
2022/03/01 06:24:19;;;;;;;40.72;17.13;;;0.10;99.90;;;;;;5021715;28;20091;-59
2022/03/01 06:26:45;;;;;;;45.33;19.10;;;0.10;99.90;;;;;;5027089;28;20107;-60
2022/03/01 06:29:10;;;;;;;41.72;17.60;;;0.20;99.90;;;;;;5023954;28;20467;-61
2022/03/01 06:31:36;;;;;;;46.58;17.67;;;0.10;99.90;;;;;;5009785;28;20056;-60
2022/03/01 06:34:02;;;;;;;38.53;16.77;;;0.20;99.90;;;;;;5010200;28;20037;-61
2022/03/01 06:36:28;;;;;;;50.25;18.65;;;0.10;99.90;;;;;;5009600;28;20034;-59
2022/03/01 06:38:54;;;;;;;39.53;16.27;;;0.10;99.90;;;;;;5009906;28;20096;-60
2022/03/01 06:41:19;;;;;;;38.08;16.65;;;0.10;99.90;;;;;;5008785;28;20132;-62
2022/03/01 06:43:45;;;;;;;39.78;17.00;;;0.20;99.90;;;;;;5004701;28;20029;-62
2022/03/01 06:46:12;;;;;;;37.13;15.95;;;0.10;99.90;;;;;;4992825;28;20039;-61
2022/03/01 06:48:37;;;;;;;38.63;16.23;;;0.20;99.90;;;;;;4989948;28;20060;-59
2022/03/01 06:51:05;;;;;;;40.75;17.25;;;0.20;99.90;;;;;;4990477;28;20058;-62
2022/03/01 06:53:30;;;;;;;52.13;16.60;;;0.30;99.90;;;;;;4998577;28;20111;-59
2022/03/01 06:55:56;;;;;;;43.55;16.90;;;0.20;99.90;;;;;;5014691;28;20459;-59
2022/03/01 06:58:22;;;;;;;40.88;16.10;;;0.30;99.90;;;;;;5020664;28;20028;-58
2022/03/01 07:00:47;;;;;;;39.15;17.50;;;0.30;99.90;;;;;;5010709;28;20052;-58
2022/03/01 07:03:13;;;;;;;44.08;16.92;;;0.30;99.90;;;;;;5009315;28;20057;-59
2022/03/01 07:05:39;;;;;;;38.55;16.83;;;0.30;99.90;;;;;;5008769;28;20101;-59
2022/03/01 07:08:05;;;;;;;39.97;16.63;;;0.30;99.90;;;;;;5009634;28;20041;-60
2022/03/01 07:10:32;;;;;;;40.00;16.80;;;0.30;99.90;;;;;;5009061;28;20037;-60
2022/03/01 07:12:57;;;;;;;46.47;18.35;;;0.30;99.90;;;;;;5008856;28;20403;-56
2022/03/01 07:15:23;;;;;;;41.35;17.80;;;0.40;99.90;;;;;;5017374;28;20034;-58
2022/03/01 07:17:49;;;;;;;44.65;17.00;;;0.30;99.90;;;;;;5026901;28;20038;-55
2022/03/01 07:20:15;;;;;;;35.85;13.82;;;0.40;99.90;;;;;;5016049;28;20029;-58
2022/03/01 07:22:41;;;;;;;39.53;17.30;;;0.40;99.90;;;;;;5020167;28;20040;-55
2022/03/01 07:25:07;;;;;;;40.25;18.13;;;0.40;99.90;;;;;;5018432;28;20112;-57
2022/03/01 07:27:33;;;;;;;46.22;18.10;;;0.40;99.90;;;;;;5013887;28;20126;-59
2022/03/01 07:29:59;;;;;;;46.53;18.13;;;0.50;99.90;;;;;;5016766;28;20423;-55
2022/03/01 07:32:25;;;;;;;41.45;17.85;;;0.60;99.90;;;;;;5014199;28;20379;-55
2022/03/01 07:34:51;;;;;;;40.30;17.55;;;0.60;99.90;;;;;;5019279;28;20115;-54
2022/03/01 07:37:16;;;;;;;43.72;18.48;;;0.70;99.90;;;;;;5029137;28;20034;-59
2022/03/01 07:39:42;;;;;;;43.58;17.90;;;0.80;99.90;;;;;;5018734;28;20037;-60
2022/03/01 07:42:08;;;;;;;43.30;17.77;;;0.80;99.90;;;;;;5013468;28;20438;-60
2022/03/01 07:44:37;;;;;;;41.78;17.20;;;0.80;99.90;;;;;;5006278;28;20030;-58
2022/03/01 07:47:05;;;;;;;53.30;19.23;;;0.80;99.90;;;;;;5006516;28;20418;-60
2022/03/01 07:49:31;;;;;;;41.20;18.00;;;0.80;99.90;;;;;;5016669;28;20026;-61
2022/03/01 07:51:56;;;;;;;48.83;18.90;;;0.80;99.90;;;;;;5015327;28;20135;-57
2022/03/01 07:54:22;;;;;;;45.03;18.02;;;0.80;99.90;;;;;;5021277;28;20455;-59
2022/03/01 07:56:48;;;;;;;43.95;17.65;;;0.90;99.90;;;;;;5030253;28;20532;-59
2022/03/01 07:59:13;;;;;;;48.78;18.35;;;0.90;99.90;;;;;;5018199;28;20530;-59
2022/03/01 08:01:39;;;;;;;46.28;17.67;;;0.90;99.90;;;;;;5021300;28;20026;-59
2022/03/01 08:04:04;;;;;;;44.85;17.77;;;0.90;99.90;;;;;;5014002;28;20033;-58
2022/03/01 08:06:30;;;;;;;48.65;17.85;;;1.00;99.90;;;;;;5012690;28;20033;-58
2022/03/01 08:08:56;;;;;;;43.67;17.75;;;1.20;99.90;;;;;;5013170;28;20030;-61
2022/03/01 08:11:21;;;;;;;48.10;19.52;;;1.20;99.90;;;;;;5013083;28;20030;-56
2022/03/01 08:13:47;;;;;;;45.17;18.92;;;1.40;99.90;;;;;;5012040;28;20038;-52
2022/03/01 08:16:13;;;;;;;54.72;20.10;;;1.60;99.90;;;;;;5011879;28;20042;-53
2022/03/01 08:18:38;;;;;;;53.40;22.20;;;1.70;99.90;;;;;;5011472;28;20030;-56
2022/03/01 08:21:06;;;;;;;45.78;20.13;;;1.80;99.90;;;;;;5012334;28;20371;-52
2022/03/01 08:23:32;;;;;;;48.22;19.58;;;1.80;99.90;;;;;;5010177;28;20026;-55
2022/03/01 08:25:59;;;;;;;54.60;23.42;;;1.90;99.90;;;;;;5016391;28;20049;-61
2022/03/01 08:28:25;;;;;;;52.42;20.17;;;2.10;99.90;;;;;;5011150;28;21838;-58
2022/03/01 08:30:53;;;;;;;44.55;19.15;;;2.20;99.90;;;;;;5018958;28;20045;-59
2022/03/01 08:33:20;;;;;;;45.63;18.75;;;2.20;99.90;;;;;;5020551;28;20340;-59
2022/03/01 08:35:46;;;;;;;44.33;18.77;;;2.30;99.90;;;;;;5018517;28;20029;-57
2022/03/01 08:38:11;;;;;;;51.92;18.65;;;2.30;99.90;;;;;;5012073;28;20030;-55
2022/03/01 08:40:39;;;;;;;41.78;17.25;;;2.20;99.90;;;;;;5016459;28;20033;-62
2022/03/01 08:43:06;;;;;;;45.30;17.90;;;2.10;99.90;;;;;;5019233;28;20041;-60
2022/03/01 08:45:31;;;;;;;55.38;18.55;;;2.00;99.90;;;;;;5014120;28;20034;-57
2022/03/01 08:47:58;;;;;;;42.88;16.73;;;2.10;99.90;;;;;;5015716;28;20033;-56
2022/03/01 08:50:24;;;;;;;42.92;17.58;;;2.10;99.90;;;;;;5023903;28;20364;-55
2022/03/01 08:52:50;;;;;;;37.88;16.60;;;2.10;99.90;;;;;;5018660;28;20022;-54
2022/03/01 08:55:15;;;;;;;38.90;17.73;;;2.10;99.90;;;;;;5024089;28;20021;-57
2022/03/01 08:57:41;;;;;;;40.45;17.48;;;2.00;99.90;;;;;;5030241;28;20029;-58
2022/03/01 09:00:09;;;;;;;46.80;18.58;;;2.00;99.90;;;;;;5031216;28;20681;-58
2022/03/01 09:02:35;;;;;;;51.58;18.90;;;2.00;99.90;;;;;;5030988;28;20060;-58
2022/03/01 09:05:01;;;;;;;45.22;18.85;;;2.10;99.90;;;;;;5031120;28;20155;-61
2022/03/01 09:07:27;;;;;;;42.72;19.17;;;2.20;99.90;;;;;;5031079;28;20517;-60
2022/03/01 09:09:52;;;;;;;41.33;18.23;;;2.30;99.90;;;;;;5030848;28;20075;-59
2022/03/01 09:12:18;;;;;;;45.75;18.27;;;2.40;99.90;;;;;;5030544;28;20048;-59
2022/03/01 09:14:44;;;;;;;54.88;19.25;;;2.50;99.90;;;;;;5030947;28;20380;-59
2022/03/01 09:17:10;;;;;;;43.22;17.77;;;2.60;99.90;;;;;;5031004;28;20040;-58
2022/03/01 09:19:36;;;;;;;40.55;18.13;;;2.80;99.90;;;;;;5030853;28;20335;-60
2022/03/01 09:22:02;;;;;;;42.85;18.10;;;2.90;99.90;;;;;;5030163;28;20422;-59
2022/03/01 09:24:28;;;;;;;40.65;17.60;;;2.90;99.90;;;;;;5031674;28;20029;-59
2022/03/01 09:26:54;;;;;;;41.38;17.95;;;3.00;99.90;;;;;;5029937;28;20033;-59
2022/03/01 09:29:20;;;;;;;63.38;19.30;;;3.00;99.90;;;;;;5031167;28;20045;-58
2022/03/01 09:31:45;;;;;;;49.53;18.08;;;3.00;99.90;;;;;;5030694;28;20026;-60
2022/03/01 09:34:11;;;;;;;43.28;19.00;;;3.00;99.90;;;;;;5031212;28;20112;-56
2022/03/01 09:36:37;;;;;;;40.83;18.13;;;3.20;99.90;;;;;;5029963;28;20037;-60
2022/03/01 09:39:02;;;;;;;46.33;18.38;;;3.40;99.90;;;;;;5031290;28;20526;-58
2022/03/01 09:41:29;;;;;;;45.58;19.38;;;3.50;99.90;;;;;;5030380;28;20034;-55
2022/03/01 09:43:58;;;;;;;46.05;19.70;;;3.60;99.90;;;;;;5030720;28;20041;-59
2022/03/01 09:46:24;;;;;;;39.45;17.42;;;3.80;99.90;;;;;;5020538;28;20046;-59
2022/03/01 09:48:49;;;;;;;43.78;18.05;;;4.00;99.90;;;;;;5011289;28;20045;-55
2022/03/01 09:51:17;;;;;;;38.95;17.08;;;4.20;99.90;;;;;;5004371;28;20041;-58
2022/03/01 09:53:43;;;;;;;40.15;18.15;;;4.30;99.90;;;;;;5006085;28;20042;-58
2022/03/01 09:56:09;;;;;;;38.92;17.77;;;4.40;99.90;;;;;;5003935;28;20296;-56
2022/03/01 09:58:35;;;;;;;40.38;18.02;;;4.40;99.90;;;;;;5006425;28;20041;-59
2022/03/01 10:01:01;;;;;;;41.38;18.60;;;4.50;99.90;;;;;;5003206;28;20506;-59
2022/03/01 10:03:28;;;;;;;43.95;18.05;;;4.50;99.90;;;;;;5010586;28;20029;-55
2022/03/01 10:05:54;;;;;;;44.05;18.58;;;4.60;99.90;;;;;;5010668;28;20022;-58
2022/03/01 10:08:20;;;;;;;38.15;17.88;;;4.70;99.90;;;;;;5013412;28;20036;-59
2022/03/01 10:10:53;;;;;;;37.70;17.30;;;4.80;99.90;;;;;;5020219;28;20048;-55
2022/03/01 10:13:27;;;;;;;35.15;16.77;;;4.90;99.90;;;;;;5013232;28;20290;-59
2022/03/01 10:16:13;;;;;;;41.28;17.27;;;5.10;99.90;;;;;;5018181;28;20034;-59
2022/03/01 10:18:42;;;;;;;36.85;16.83;;;5.20;99.90;;;;;;5023212;28;20549;-58
2022/03/01 10:21:09;;;;;;;40.85;18.38;;;5.40;99.90;;;;;;5023106;28;20159;-61
2022/03/01 10:23:38;;;;;;;39.05;16.85;;;5.70;99.90;;;;;;5013905;28;20028;-59
2022/03/01 10:26:17;;;;;;;41.35;17.73;;;5.80;99.90;;;;;;5023173;28;20030;-60
2022/03/01 10:28:44;;;;;;;37.47;16.85;;;6.00;99.90;;;;;;5023058;28;20022;-61
2022/03/01 10:31:22;;;;;;;37.42;16.90;;;6.10;99.90;;;;;;5010523;28;20018;-59
2022/03/01 10:34:02;;;;;;;40.58;18.48;;;6.30;99.90;;;;;;5010146;28;20056;-59
2022/03/01 10:36:41;;;;;;;36.50;17.33;;;6.20;99.90;;;;;;5007727;28;20037;-64
2022/03/01 10:39:13;;;;;;;35.38;17.25;;;6.50;99.90;;;;;;5011291;28;20026;-61
2022/03/01 10:41:44;;;;;;;42.50;18.42;;;6.50;99.90;;;;;;5012401;28;20026;-61
2022/03/01 10:44:14;;;;;;;36.42;17.60;;;6.60;99.90;;;;;;5024779;28;20045;-60
2022/03/01 10:46:43;;;;;;;46.10;17.45;;;6.40;99.90;;;;;;5024674;28;20204;-63
2022/03/01 10:49:12;;;;;;;37.42;17.95;;;6.30;99.90;;;;;;5010501;28;20105;-61
2022/03/01 10:52:01;;;;;;;38.28;17.55;;;6.40;99.90;;;;;;4991289;28;20042;-60
2022/03/01 10:54:31;;;;;;;41.47;18.77;;;6.20;99.90;;;;;;4991217;28;20034;-63
2022/03/01 10:56:58;;;;;;;45.05;17.27;;;6.20;99.90;;;;;;5001824;28;20057;-61
2022/03/01 10:59:26;;;;;;;38.88;17.33;;;6.20;99.90;;;;;;5001923;28;20030;-60
2022/03/01 11:01:53;;;;;;;37.50;17.52;;;6.40;99.90;;;;;;5006936;28;20041;-61
2022/03/01 11:04:21;;;;;;;39.28;18.38;;;6.40;99.90;;;;;;5007668;28;20034;-60
2022/03/01 11:06:48;;;;;;;39.17;17.95;;;6.60;99.90;;;;;;5007484;28;20144;-59
2022/03/01 11:09:15;;;;;;;35.33;17.45;;;6.90;99.90;;;;;;5008027;28;20181;-60
2022/03/01 11:11:42;;;;;;;37.78;16.92;;;7.20;99.90;;;;;;5010469;28;20083;-59
2022/03/01 11:14:24;;;;;;;39.08;16.83;;;7.60;99.90;;;;;;5012658;28;20080;-61
2022/03/01 11:17:33;;;;;;;38.05;16.75;;;8.00;99.90;;;;;;5015401;28;20379;-60
2022/03/01 11:20:06;;;;;;;38.92;18.08;;;8.40;99.90;;;;;;5010359;28;20022;-60
2022/03/01 11:22:56;;;;;;;42.35;18.83;;;8.40;99.90;;;;;;5018516;28;20075;-57
2022/03/01 11:25:24;;;;;;;35.08;17.73;;;8.20;99.90;;;;;;5011740;28;20109;-60
2022/03/01 11:28:00;;;;;;;43.45;18.20;;;8.20;99.90;;;;;;5009514;28;20033;-60
2022/03/01 11:30:29;;;;;;;40.10;17.98;;;8.00;99.90;;;;;;5023211;28;20498;-59
2022/03/01 11:32:56;;;;;;;42.92;17.55;;;8.00;99.90;;;;;;5021027;28;20030;-59
2022/03/01 11:35:33;;;;;;;40.88;17.75;;;8.00;99.90;;;;;;5019075;28;20106;-58
2022/03/01 11:38:15;;;;;;;38.28;17.58;;;8.10;99.90;;;;;;5024764;28;20109;-59
2022/03/01 11:40:41;;;;;;;36.28;18.65;;;8.10;99.90;;;;;;5017122;28;20029;-61
2022/03/01 11:43:14;;;;;;;42.35;19.20;;;8.00;99.90;;;;;;5020547;28;20116;-55
2022/03/01 11:45:46;;;;;;;36.58;16.77;;;7.70;99.90;;;;;;5024477;28;20032;-62
2022/03/01 11:48:24;;;;;;;39.53;18.90;;;7.70;99.90;;;;;;5020624;28;20459;-56
2022/03/01 11:50:59;;;;;;;37.97;17.92;;;7.80;99.90;;;;;;5024580;28;20121;-60
2022/03/01 11:53:29;;;;;;;41.05;18.05;;;8.00;99.90;;;;;;5015955;28;20034;-61
2022/03/01 11:55:58;;;;;;;39.63;18.00;;;7.90;99.90;;;;;;5026062;28;20040;-55
2022/03/01 11:58:25;;;;;;;38.10;17.15;;;8.10;99.90;;;;;;5027332;28;20017;-62
2022/03/01 12:00:51;;;;;;;34.13;16.50;;;8.40;99.90;;;;;;5021479;28;20061;-53
2022/03/01 12:03:23;;;;;;;34.15;17.20;;;8.60;99.90;;;;;;5024152;28;20021;-52
2022/03/01 12:05:49;;;;;;;;;;;8.90;99.90;;;;;;5011985;28;20483;-49
2022/03/01 12:08:17;;;;;;;36.42;17.00;;;9.10;99.90;;;;;;5018825;28;19909;-52
2022/03/01 12:10:52;;;;;;;32.45;16.55;;;9.30;99.90;;;;;;5016413;28;20029;-69
2022/03/01 12:13:18;;;;;;;37.65;17.77;;;9.30;99.90;;;;;;5016802;28;20025;-70
2022/03/01 12:15:54;;;;;;;38.08;17.02;;;9.50;99.90;;;;;;5014299;28;20041;-67
2022/03/01 12:18:29;;;;;;;30.85;17.10;;;9.10;99.90;;;;;;5017895;28;20034;-69
2022/03/01 12:21:04;;;;;;;35.95;16.90;;;8.80;99.90;;;;;;5012615;28;20029;-69
2022/03/01 12:23:33;;;;;;;39.75;18.23;;;8.80;99.90;;;;;;5012323;28;20053;-68
2022/03/01 12:26:04;;;;;;;33.70;17.55;;;8.40;99.90;;;;;;5012027;28;20029;-68
2022/03/01 12:28:46;;;;;;;35.88;17.67;;;8.20;99.90;;;;;;5012492;28;20057;-67
2022/03/01 12:31:13;;;;;;;37.33;18.23;;;8.00;99.90;;;;;;5012466;28;20049;-67
2022/03/01 12:33:57;;;;;;;36.92;18.08;;;7.80;99.90;;;;;;5002445;28;20606;-68
2022/03/01 12:36:38;;;;;;;36.25;18.13;;;7.70;99.90;;;;;;4991870;28;20034;-67
2022/03/01 12:39:13;;;;;;;40.60;18.73;;;7.70;99.90;;;;;;4993184;28;20038;-67
2022/03/01 12:41:41;;;;;;;33.67;17.33;;;7.60;99.90;;;;;;4991163;28;20042;-67